Time;durP1;ratioP1;P1;durP2;ratioP2;P2;SDS_P1;SDS_P2;PMS_P1;PMS_P2;Temp;Humidity;BMP_temperature;BMP_pressure;BME280_temperature;BME280_humidity;BME280_pressure;Samples;Min_cycle;Max_cycle;Signal;HPM_P1;HPM_P2
2023/10/07 00:01:33;;;;;;;;;;;;;;;;;;112498;209;38729;-45
2023/10/07 00:04:09;;;;;;;;;;;;;;;;;;112462;209;175640;-45
2023/10/07 00:06:41;;;;;;;;;;;;;;;;;;112602;209;42774;-45
2023/10/07 00:09:22;;;;;;;;;;;;;;;;;;112568;209;41623;-47
2023/10/07 00:11:54;;;;;;;;;;;;;;;;;;112673;210;44500;-48
2023/10/07 00:14:30;;;;;;;;;;;;;;;;;;112609;210;41165;-46
2023/10/07 00:17:06;;;;;;;;;;;;;;;;;;112594;210;43157;-49
2023/10/07 00:19:39;;;;;;;;;;;;;;;;;;112563;210;40720;-46
2023/10/07 00:22:13;;;;;;;;;;;;;;;;;;112523;209;44579;-44
2023/10/07 00:24:48;;;;;;;;;;;;;;;;;;112598;210;39543;-45
2023/10/07 00:27:29;;;;;;;;;;;;;;;;;;112607;210;43437;-46
2023/10/07 00:30:12;;;;;;;;;;;;;;;;;;112537;210;41956;-48
2023/10/07 00:32:46;;;;;;;;;;;;;;;;;;112619;209;44837;-45
2023/10/07 00:35:20;;;;;;;;;;;;;;;;;;112565;210;39560;-46
2023/10/07 00:37:52;;;;;;;;;;;;;;;;;;112586;210;42781;-48
2023/10/07 00:40:41;;;;;;;;;;;;;;;;;;112628;209;41647;-45
2023/10/07 00:43:26;;;;;;;;;;;;;;;;;;112584;210;46120;-48
2023/10/07 00:46:06;;;;;;;;;;;;;;;;;;112528;210;39650;-45
2023/10/07 00:48:46;;;;;;;;;;;;;;;;;;112510;210;43543;-45
2023/10/07 00:51:33;;;;;;;;;;;;;;;;;;112466;210;41433;-45
2023/10/07 00:54:17;;;;;;;;;;;;;;;;;;112544;210;38461;-49
2023/10/07 00:57:01;;;;;;;;;;;;;;;;;;112549;210;39572;-47
2023/10/07 00:59:40;;;;;;;;;;;;;;;;;;112538;210;43003;-48
2023/10/07 01:02:18;;;;;;;;;;;;;;;;;;112511;210;41840;-45
2023/10/07 01:04:53;;;;;;;;;;;;;;;;;;112528;209;39003;-49
2023/10/07 01:07:29;;;;;;;;;;;;;;;;;;112522;210;39610;-48
2023/10/07 01:10:13;;;;;;;;;;;;;;;;;;112520;210;42986;-47
2023/10/07 01:12:45;;;;;;;;;;;;;;;;;;112538;210;41848;-48
2023/10/07 01:15:23;;;;;;;;;;;;;;;;;;112531;210;38881;-48
2023/10/07 01:18:04;;;;;;;;;;;;;;;;;;112549;210;39616;-47
2023/10/07 01:20:58;;;;;;;;;;;;;;;;;;112561;210;42807;-49
2023/10/07 01:23:33;;;;;;;;;;;;;;;;;;112489;210;41379;-49
2023/10/07 01:26:14;;;;;;;;;;;;;;;;;;112567;210;38474;-46
2023/10/07 01:28:56;;;;;;;;;;;;;;;;;;112572;210;39353;-46
2023/10/07 01:31:31;;;;;;;;;;;;;;;;;;112529;210;43960;-49
2023/10/07 01:34:13;;;;;;;;;;;;;;;;;;112536;210;47795;-47
2023/10/07 01:36:46;;;;;;;;;;;;;;;;;;112533;210;39270;-46
2023/10/07 01:39:22;;;;;;;;;;;;;;;;;;112455;210;175695;-45
2023/10/07 01:41:56;;;;;;;;;;;;;;;;;;112575;210;42849;-49
2023/10/07 01:44:38;;;;;;;;;;;;;;;;;;112495;210;49059;-46
2023/10/07 01:47:23;;;;;;;;;;;;;;;;;;112541;209;38679;-47
2023/10/07 01:49:58;;;;;;;;;;;;;;;;;;112580;210;39771;-49
2023/10/07 01:52:31;;;;;;;;;;;;;;;;;;112548;210;42940;-49
2023/10/07 01:55:09;;;;;;;;;;;;;;;;;;112569;209;47775;-49
2023/10/07 01:57:44;;;;;;;;;;;;;;;;;;112580;210;38923;-49
2023/10/07 02:00:38;;;;;;;;;;;;;;;;;;112585;210;39803;-46
2023/10/07 02:03:13;;;;;;;;;;;;;;;;;;112485;210;43863;-46
2023/10/07 02:05:48;;;;;;;;;;;;;;;;;;112563;209;41498;-45
2023/10/07 02:08:25;;;;;;;;;;;;;;;;;;112561;210;38447;-46
2023/10/07 02:10:59;;;;;;;;;;;;;;;;;;112569;210;39408;-46
2023/10/07 02:13:35;;;;;;;;;;;;;;;;;;112466;210;43105;-45
2023/10/07 02:16:11;;;;;;;;;;;;;;;;;;112567;209;41606;-45
2023/10/07 02:18:47;;;;;;;;;;;;;;;;;;112557;210;38868;-47
2023/10/07 02:21:22;;;;;;;;;;;;;;;;;;112552;210;39309;-46
2023/10/07 02:23:58;;;;;;;;;;;;;;;;;;112369;210;177383;-47
2023/10/07 02:26:35;;;;;;;;;;;;;;;;;;112310;210;175635;-46
2023/10/07 02:29:13;;;;;;;;;;;;;;;;;;112564;210;38910;-47
2023/10/07 02:31:50;;;;;;;;;;;;;;;;;;112553;210;39605;-49
2023/10/07 02:34:28;;;;;;;;;;;;;;;;;;112519;209;42824;-46
2023/10/07 02:37:12;;;;;;;;;;;;;;;;;;112522;210;41789;-46
2023/10/07 02:39:48;;;;;;;;;;;;;;;;;;112571;210;38729;-45
2023/10/07 02:42:24;;;;;;;;;;;;;;;;;;112558;210;39384;-47
2023/10/07 02:45:12;;;;;;;;;;;;;;;;;;112523;209;43008;-45
2023/10/07 02:47:51;;;;;;;;;;;;;;;;;;112024;210;624327;-45
2023/10/07 02:50:26;;;;;;;;;;;;;;;;;;112558;210;38475;-44
2023/10/07 02:53:11;;;;;;;;;;;;;;;;;;112561;210;39318;-45
2023/10/07 02:55:54;;;;;;;;;;;;;;;;;;112475;210;42825;-46
2023/10/07 02:58:32;;;;;;;;;;;;;;;;;;112542;210;41679;-46
2023/10/07 03:01:13;;;;;;;;;;;;;;;;;;112585;209;38541;-47
2023/10/07 03:03:49;;;;;;;;;;;;;;;;;;112546;210;39585;-48
2023/10/07 03:06:26;;;;;;;;;;;;;;;;;;112537;209;49777;-49
2023/10/07 03:09:03;;;;;;;;;;;;;;;;;;112557;210;43265;-48
2023/10/07 03:11:49;;;;;;;;;;;;;;;;;;112569;210;38756;-49
2023/10/07 03:14:26;;;;;;;;;;;;;;;;;;112554;209;39621;-48
2023/10/07 03:17:00;;;;;;;;;;;;;;;;;;112602;210;42821;-46
2023/10/07 03:19:48;;;;;;;;;;;;;;;;;;112549;209;41862;-49
2023/10/07 03:22:26;;;;;;;;;;;;;;;;;;112606;210;39187;-48
2023/10/07 03:25:00;;;;;;;;;;;;;;;;;;112538;209;39929;-47
2023/10/07 03:27:39;;;;;;;;;;;;;;;;;;112601;209;43094;-46
2023/10/07 03:30:15;;;;;;;;;;;;;;;;;;112608;210;41765;-49
2023/10/07 03:32:56;;;;;;;;;;;;;;;;;;112609;209;38901;-50
2023/10/07 03:35:46;;;;;;;;;;;;;;;;;;112545;209;39371;-48
2023/10/07 03:38:25;;;;;;;;;;;;;;;;;;112573;210;42986;-48
2023/10/07 03:40:58;;;;;;;;;;;;;;;;;;112563;209;41803;-49
2023/10/07 03:43:35;;;;;;;;;;;;;;;;;;112585;210;38933;-49
2023/10/07 03:46:15;;;;;;;;;;;;;;;;;;112558;209;39365;-47
2023/10/07 03:48:53;;;;;;;;;;;;;;;;;;112580;210;42769;-49
2023/10/07 03:51:30;;;;;;;;;;;;;;;;;;112584;210;41813;-46
2023/10/07 03:54:13;;;;;;;;;;;;;;;;;;112588;209;38837;-49
2023/10/07 03:56:49;;;;;;;;;;;;;;;;;;112592;210;39728;-46
2023/10/07 03:59:21;;;;;;;;;;;;;;;;;;112614;209;44171;-47
2023/10/07 04:01:55;;;;;;;;;;;;;;;;;;112606;209;41682;-49
2023/10/07 04:04:58;;;;;;;;;;;;;;;;;;112621;210;40044;-44
2023/10/07 04:07:33;;;;;;;;;;;;;;;;;;112588;209;39399;-48
2023/10/07 04:10:20;;;;;;;;;;;;;;;;;;112591;210;44060;-45
2023/10/07 04:12:56;;;;;;;;;;;;;;;;;;112585;210;42161;-49
2023/10/07 04:15:34;;;;;;;;;;;;;;;;;;112556;210;38718;-49
2023/10/07 04:18:10;;;;;;;;;;;;;;;;;;112593;210;45863;-49
2023/10/07 04:20:57;;;;;;;;;;;;;;;;;;112603;209;42935;-49
2023/10/07 04:23:30;;;;;;;;;;;;;;;;;;112565;209;41665;-48
2023/10/07 04:26:09;;;;;;;;;;;;;;;;;;112439;211;38915;-49
2023/10/07 04:28:42;;;;;;;;;;;;;;;;;;112466;211;39653;-49
2023/10/07 04:31:15;;;;;;;;;;;;;;;;;;112520;211;43198;-46
2023/10/07 04:33:53;;;;;;;;;;;;;;;;;;112489;211;42017;-49
2023/10/07 04:36:33;;;;;;;;;;;;;;;;;;112455;211;39227;-49
2023/10/07 04:39:17;;;;;;;;;;;;;;;;;;112481;211;39695;-49
2023/10/07 04:41:57;;;;;;;;;;;;;;;;;;112496;211;42939;-48
2023/10/07 04:50:08;;;;;;;;;;;;;;;;;;112530;211;39575;-47
2023/10/07 04:52:42;;;;;;;;;;;;;;;;;;112533;211;42967;-49
2023/10/07 04:55:15;;;;;;;;;;;;;;;;;;112481;211;41637;-49
2023/10/07 04:57:57;;;;;;;;;;;;;;;;;;112443;211;39169;-49
2023/10/07 05:00:36;;;;;;;;;;;;;;;;;;112526;211;39727;-49
2023/10/07 05:03:15;;;;;;;;;;;;;;;;;;112453;211;43032;-49
2023/10/07 05:05:49;;;;;;;;;;;;;;;;;;112456;211;42437;-47
2023/10/07 05:08:22;;;;;;;;;;;;;;;;;;112447;211;38922;-47
2023/10/07 05:11:04;;;;;;;;;;;;;;;;;;112493;211;39607;-46
2023/10/07 05:13:44;;;;;;;;;;;;;;;;;;112423;211;42519;-49
2023/10/07 05:16:22;;;;;;;;;;;;;;;;;;112494;211;41379;-48
2023/10/07 05:18:57;;;;;;;;;;;;;;;;;;112254;211;38853;-49
2023/10/07 05:21:31;;;;;;;;;;;;;;;;;;112467;211;39970;-48
2023/10/07 05:24:04;;;;;;;;;;;;;;;;;;112484;210;42945;-48
2023/10/07 05:26:40;;;;;;;;;;;;;;;;;;112529;210;41693;-45
2023/10/07 05:29:14;;;;;;;;;;;;;;;;;;112519;210;38866;-46
2023/10/07 05:31:47;;;;;;;;;;;;;;;;;;112598;210;39567;-47
2023/10/07 05:34:21;;;;;;;;;;;;;;;;;;112577;210;43163;-45
2023/10/07 05:36:53;;;;;;;;;;;;;;;;;;112617;210;41870;-46
2023/10/07 05:39:29;;;;;;;;;;;;;;;;;;112531;210;38914;-46
2023/10/07 05:42:05;;;;;;;;;;;;;;;;;;112597;210;39537;-49
2023/10/07 05:44:40;;;;;;;;;;;;;;;;;;112579;210;42952;-47
2023/10/07 05:47:13;;;;;;;;;;;;;;;;;;112564;210;41608;-46
2023/10/07 05:49:49;;;;;;;;;;;;;;;;;;112545;210;44859;-47
2023/10/07 05:52:27;;;;;;;;;;;;;;;;;;112613;210;39943;-49
2023/10/07 05:55:02;;;;;;;;;;;;;;;;;;112557;210;42941;-49
2023/10/07 05:57:35;;;;;;;;;;;;;;;;;;112578;210;41996;-48
2023/10/07 06:00:11;;;;;;;;;;;;;;;;;;112555;210;38682;-49
2023/10/07 06:02:43;;;;;;;;;;;;;;;;;;112586;210;39597;-49
2023/10/07 06:05:17;;;;;;;;;;;;;;;;;;112562;210;42838;-49
2023/10/07 06:07:51;;;;;;;;;;;;;;;;;;112526;210;41679;-49
2023/10/07 06:10:24;;;;;;;;;;;;;;;;;;112556;210;45872;-49
2023/10/07 06:12:59;;;;;;;;;;;;;;;;;;112510;210;39601;-45
2023/10/07 06:15:35;;;;;;;;;;;;;;;;;;112536;210;42620;-46
2023/10/07 06:18:09;;;;;;;;;;;;;;;;;;112524;210;41649;-48
2023/10/07 06:20:46;;;;;;;;;;;;;;;;;;112569;210;46081;-49
2023/10/07 06:23:19;;;;;;;;;;;;;;;;;;112576;210;40798;-45
2023/10/07 06:25:52;;;;;;;;;;;;;;;;;;112605;210;43149;-44
2023/10/07 06:28:35;;;;;;;;;;;;;;;;;;112552;210;41762;-45
2023/10/07 06:31:11;;;;;;;;;;;;;;;;;;112575;210;45390;-45
2023/10/07 06:33:46;;;;;;;;;;;;;;;;;;112588;210;40833;-45
2023/10/07 06:36:20;;;;;;;;;;;;;;;;;;112590;210;43070;-45
2023/10/07 06:38:53;;;;;;;;;;;;;;;;;;112552;210;41763;-45
2023/10/07 06:41:29;;;;;;;;;;;;;;;;;;112575;210;45958;-46
2023/10/07 06:44:02;;;;;;;;;;;;;;;;;;112599;210;39851;-45
2023/10/07 06:46:41;;;;;;;;;;;;;;;;;;112567;209;42967;-49
2023/10/07 06:49:18;;;;;;;;;;;;;;;;;;112536;209;40618;-46
2023/10/07 06:51:56;;;;;;;;;;;;;;;;;;112462;210;175725;-45
2023/10/07 06:54:32;;;;;;;;;;;;;;;;;;112598;210;39261;-45
2023/10/07 06:57:10;;;;;;;;;;;;;;;;;;112452;210;175301;-45
2023/10/07 06:59:45;;;;;;;;;;;;;;;;;;112557;210;41788;-46
2023/10/07 07:02:34;;;;;;;;;;;;;;;;;;112570;209;39154;-45
2023/10/07 07:05:15;;;;;;;;;;;;;;;;;;112518;209;39798;-45
2023/10/07 07:07:52;;;;;;;;;;;;;;;;;;112584;209;42817;-45
2023/10/07 07:10:28;;;;;;;;;;;;;;;;;;112479;209;41506;-46
2023/10/07 07:13:05;;;;;;;;;;;;;;;;;;112561;210;39981;-45
2023/10/07 07:15:41;;;;;;;;;;;;;;;;;;112595;209;40119;-47
2023/10/07 07:18:19;;;;;;;;;;;;;;;;;;112550;210;44257;-47
2023/10/07 07:21:00;;;;;;;;;;;;;;;;;;112546;209;41815;-45
2023/10/07 07:23:39;;;;;;;;;;;;;;;;;;112584;210;38770;-49
2023/10/07 07:26:18;;;;;;;;;;;;;;;;;;112611;209;40790;-45
2023/10/07 07:28:56;;;;;;;;;;;;;;;;;;112562;209;42899;-45
2023/10/07 07:31:33;;;;;;;;;;;;;;;;;;112526;209;42563;-49
2023/10/07 07:34:20;;;;;;;;;;;;;;;;;;112626;210;38792;-49
2023/10/07 07:36:59;;;;;;;;;;;;;;;;;;112616;210;39319;-48
2023/10/07 07:39:33;;;;;;;;;;;;;;;;;;112592;210;44051;-49
2023/10/07 07:42:21;;;;;;;;;;;;;;;;;;112530;210;42917;-48
2023/10/07 07:44:57;;;;;;;;;;;;;;;;;;112597;209;40003;-46
2023/10/07 07:47:32;;;;;;;;;;;;;;;;;;112581;210;39585;-48
2023/10/07 07:50:08;;;;;;;;;;;;;;;;;;112567;209;42957;-49
2023/10/07 07:52:40;;;;;;;;;;;;;;;;;;112670;209;47400;-48
2023/10/07 07:55:14;;;;;;;;;;;;;;;;;;112572;209;38710;-49
2023/10/07 07:57:50;;;;;;;;;;;;;;;;;;112604;210;39560;-49
2023/10/07 08:00:25;;;;;;;;;;;;;;;;;;112573;209;43026;-49
2023/10/07 08:02:58;;;;;;;;;;;;;;;;;;112563;210;47374;-49
2023/10/07 08:05:39;;;;;;;;;;;;;;;;;;112612;209;38761;-49
2023/10/07 08:08:19;;;;;;;;;;;;;;;;;;112592;210;39880;-49
2023/10/07 08:10:54;;;;;;;;;;;;;;;;;;112535;209;43034;-48
2023/10/07 08:13:28;;;;;;;;;;;;;;;;;;112547;210;47876;-49
2023/10/07 08:16:05;;;;;;;;;;;;;;;;;;112546;210;39019;-49
2023/10/07 08:18:37;;;;;;;;;;;;;;;;;;112477;209;175655;-49
2023/10/07 08:21:15;;;;;;;;;;;;;;;;;;112585;210;42818;-49
2023/10/07 08:23:51;;;;;;;;;;;;;;;;;;112604;209;49220;-49
2023/10/07 08:26:23;;;;;;;;;;;;;;;;;;112629;210;39941;-48
2023/10/07 08:29:00;;;;;;;;;;;;;;;;;;112627;209;40867;-45
2023/10/07 08:31:39;;;;;;;;;;;;;;;;;;112576;210;43902;-49
2023/10/07 08:34:12;;;;;;;;;;;;;;;;;;112610;210;42182;-45
2023/10/07 08:36:47;;;;;;;;;;;;;;;;;;112608;209;40001;-47
2023/10/07 08:39:26;;;;;;;;;;;;;;;;;;112581;209;39517;-46
2023/10/07 08:42:12;;;;;;;;;;;;;;;;;;112553;209;43847;-49
2023/10/07 08:44:57;;;;;;;;;;;;;;;;;;112602;210;41677;-48
2023/10/07 08:47:39;;;;;;;;;;;;;;;;;;112599;210;39014;-49
2023/10/07 08:50:14;;;;;;;;;;;;;;;;;;112575;210;39588;-46
2023/10/07 08:52:48;;;;;;;;;;;;;;;;;;112556;210;42777;-49
2023/10/07 08:55:21;;;;;;;;;;;;;;;;;;112546;210;41913;-48
2023/10/07 08:57:55;;;;;;;;;;;;;;;;;;112557;210;39968;-48
2023/10/07 09:00:31;;;;;;;;;;;;;;;;;;112422;210;40876;-49
2023/10/07 09:03:14;;;;;;;;;;;;;;;;;;112399;210;43179;-49
2023/10/07 09:05:49;;;;;;;;;;;;;;;;;;112488;210;41726;-49
2023/10/07 09:08:25;;;;;;;;;;;;;;;;;;112491;210;38951;-47
2023/10/07 09:10:57;;;;;;;;;;;;;;;;;;111806;210;895913;-50
2023/10/07 09:13:31;;;;;;;;;;;;;;;;;;112459;210;44435;-49
2023/10/07 09:16:06;;;;;;;;;;;;;;;;;;111819;210;896060;-45
2023/10/07 09:18:42;;;;;;;;;;;;;;;;;;112462;210;40006;-47
2023/10/07 09:21:19;;;;;;;;;;;;;;;;;;112523;210;39686;-44
2023/10/07 09:24:01;;;;;;;;;;;;;;;;;;112435;210;42795;-45
2023/10/07 09:26:37;;;;;;;;;;;;;;;;;;112366;210;42779;-46
2023/10/07 09:29:15;;;;;;;;;;;;;;;;;;112408;210;38607;-45
2023/10/07 09:31:56;;;;;;;;;;;;;;;;;;112424;210;39647;-44
2023/10/07 09:34:41;;;;;;;;;;;;;;;;;;112339;210;43925;-44
2023/10/07 09:37:21;;;;;;;;;;;;;;;;;;112245;211;175613;-47
2023/10/07 09:39:55;;;;;;;;;;;;;;;;;;112404;211;38659;-40
2023/10/07 09:42:39;;;;;;;;;;;;;;;;;;112360;211;42247;-42
2023/10/07 09:45:27;;;;;;;;;;;;;;;;;;112373;210;48751;-39
2023/10/07 09:48:05;;;;;;;;;;;;;;;;;;112456;210;41405;-38
2023/10/07 09:50:42;;;;;;;;;;;;;;;;;;112404;210;38740;-38
2023/10/07 09:53:38;;;;;;;;;;;;;;;;;;112436;210;39510;-38
2023/10/07 09:56:24;;;;;;;;;;;;;;;;;;112366;210;48981;-40
2023/10/07 09:59:15;;;;;;;;;;;;;;;;;;112436;210;42908;-39
2023/10/07 10:02:25;;;;;;;;;;;;;;;;;;112332;210;175628;-39
2023/10/07 10:05:24;;;;;;;;;;;;;;;;;;112301;210;39692;-39
2023/10/07 10:08:19;;;;;;;;;;;;;;;;;;112348;210;42941;-38
2023/10/07 10:10:57;;;;;;;;;;;;;;;;;;112448;210;42872;-41
2023/10/07 10:13:52;;;;;;;;;;;;;;;;;;112462;210;38666;-40
2023/10/07 10:16:44;;;;;;;;;;;;;;;;;;112420;210;39730;-41
2023/10/07 10:19:37;;;;;;;;;;;;;;;;;;112450;210;42818;-45
2023/10/07 10:22:13;;;;;;;;;;;;;;;;;;112415;210;41825;-47
2023/10/07 10:24:46;;;;;;;;;;;;;;;;;;112378;210;38694;-44
2023/10/07 10:27:21;;;;;;;;;;;;;;;;;;112418;210;40979;-47
2023/10/07 10:29:55;;;;;;;;;;;;;;;;;;112530;210;42957;-44
2023/10/07 10:32:32;;;;;;;;;;;;;;;;;;112448;209;41700;-43
2023/10/07 10:35:10;;;;;;;;;;;;;;;;;;112501;210;38682;-44
2023/10/07 10:37:43;;;;;;;;;;;;;;;;;;112577;209;39252;-45
2023/10/07 10:40:19;;;;;;;;;;;;;;;;;;112512;209;43315;-45
2023/10/07 10:42:55;;;;;;;;;;;;;;;;;;112512;210;41710;-46
2023/10/07 10:45:29;;;;;;;;;;;;;;;;;;112557;210;38565;-46
2023/10/07 10:48:03;;;;;;;;;;;;;;;;;;112202;209;423601;-44
2023/10/07 10:50:35;;;;;;;;;;;;;;;;;;112542;210;43067;-47
2023/10/07 10:53:16;;;;;;;;;;;;;;;;;;112542;209;41653;-47
2023/10/07 10:55:51;;;;;;;;;;;;;;;;;;112488;210;38886;-47
2023/10/07 10:58:24;;;;;;;;;;;;;;;;;;112550;209;39911;-46
2023/10/07 11:00:58;;;;;;;;;;;;;;;;;;112526;210;42816;-47
2023/10/07 11:03:32;;;;;;;;;;;;;;;;;;112513;210;42892;-50
2023/10/07 11:06:09;;;;;;;;;;;;;;;;;;112497;210;38640;-48
2023/10/07 11:08:42;;;;;;;;;;;;;;;;;;112547;210;39403;-49
2023/10/07 11:11:14;;;;;;;;;;;;;;;;;;112534;210;42637;-49
2023/10/07 11:13:56;;;;;;;;;;;;;;;;;;112404;210;41922;-46
2023/10/07 11:16:30;;;;;;;;;;;;;;;;;;112401;210;38695;-43
2023/10/07 11:19:11;;;;;;;;;;;;;;;;;;112479;210;39427;-45
2023/10/07 11:21:48;;;;;;;;;;;;;;;;;;112434;210;42887;-44
2023/10/07 11:24:28;;;;;;;;;;;;;;;;;;112453;210;41705;-46
2023/10/07 11:27:02;;;;;;;;;;;;;;;;;;112380;210;38742;-40
2023/10/07 11:29:34;;;;;;;;;;;;;;;;;;112397;210;41746;-41
2023/10/07 11:32:12;;;;;;;;;;;;;;;;;;112403;210;43087;-40
2023/10/07 11:34:45;;;;;;;;;;;;;;;;;;112391;210;43056;-47
2023/10/07 11:37:23;;;;;;;;;;;;;;;;;;112375;210;38731;-45
2023/10/07 11:39:56;;;;;;;;;;;;;;;;;;112351;210;39793;-48
2023/10/07 11:42:29;;;;;;;;;;;;;;;;;;112454;210;42791;-43
2023/10/07 11:45:11;;;;;;;;;;;;;;;;;;112442;210;41679;-43
2023/10/07 11:47:45;;;;;;;;;;;;;;;;;;112385;210;38437;-42
2023/10/07 11:50:27;;;;;;;;;;;;;;;;;;112408;210;39379;-44
2023/10/07 11:53:01;;;;;;;;;;;;;;;;;;112431;210;42726;-43
2023/10/07 11:55:36;;;;;;;;;;;;;;;;;;112414;210;41771;-46
2023/10/07 11:58:15;;;;;;;;;;;;;;;;;;112384;210;38692;-42
2023/10/07 12:00:53;;;;;;;;;;;;;;;;;;112400;210;39573;-46
2023/10/07 12:03:26;;;;;;;;;;;;;;;;;;112415;210;42985;-44
2023/10/07 12:05:59;;;;;;;;;;;;;;;;;;112370;210;42947;-47
2023/10/07 12:08:35;;;;;;;;;;;;;;;;;;112406;210;39124;-42
2023/10/07 12:11:09;;;;;;;;;;;;;;;;;;112428;210;39396;-47
2023/10/07 12:13:41;;;;;;;;;;;;;;;;;;112284;210;175680;-43
2023/10/07 12:16:14;;;;;;;;;;;;;;;;;;112560;210;42980;-43
2023/10/07 12:18:49;;;;;;;;;;;;;;;;;;112465;209;38700;-42
2023/10/07 12:21:23;;;;;;;;;;;;;;;;;;112555;209;39283;-45
2023/10/07 12:23:56;;;;;;;;;;;;;;;;;;112548;210;44034;-45
2023/10/07 12:26:31;;;;;;;;;;;;;;;;;;112512;209;41891;-46
2023/10/07 12:29:04;;;;;;;;;;;;;;;;;;112694;209;44973;-49
2023/10/07 12:31:36;;;;;;;;;;;;;;;;;;112565;209;39554;-48
2023/10/07 12:34:09;;;;;;;;;;;;;;;;;;112546;209;42934;-49
2023/10/07 12:36:44;;;;;;;;;;;;;;;;;;112582;209;41633;-49
2023/10/07 12:39:21;;;;;;;;;;;;;;;;;;112536;209;46067;-49
2023/10/07 12:41:54;;;;;;;;;;;;;;;;;;112587;209;39681;-48
2023/10/07 12:44:32;;;;;;;;;;;;;;;;;;112591;210;43268;-49
2023/10/07 12:47:08;;;;;;;;;;;;;;;;;;112525;210;41580;-47
2023/10/07 12:49:45;;;;;;;;;;;;;;;;;;112484;210;46542;-46
2023/10/07 12:52:17;;;;;;;;;;;;;;;;;;112544;210;39394;-47
2023/10/07 12:54:53;;;;;;;;;;;;;;;;;;112464;210;43013;-49
2023/10/07 12:57:28;;;;;;;;;;;;;;;;;;112477;210;41904;-46
2023/10/07 13:00:01;;;;;;;;;;;;;;;;;;112494;210;44414;-49
2023/10/07 13:02:37;;;;;;;;;;;;;;;;;;112505;210;39568;-46
2023/10/07 13:05:17;;;;;;;;;;;;;;;;;;112515;210;44353;-49
2023/10/07 13:07:51;;;;;;;;;;;;;;;;;;112480;210;43000;-49
2023/10/07 13:10:23;;;;;;;;;;;;;;;;;;112473;210;40275;-47
2023/10/07 13:12:58;;;;;;;;;;;;;;;;;;112495;210;39520;-45
2023/10/07 13:15:33;;;;;;;;;;;;;;;;;;112515;210;42830;-49
2023/10/07 13:18:09;;;;;;;;;;;;;;;;;;112549;210;41615;-47
2023/10/07 13:20:41;;;;;;;;;;;;;;;;;;112558;210;45214;-47
2023/10/07 13:23:16;;;;;;;;;;;;;;;;;;112568;210;39519;-47
2023/10/07 13:25:50;;;;;;;;;;;;;;;;;;112560;210;42976;-44
2023/10/07 13:28:23;;;;;;;;;;;;;;;;;;112537;210;41622;-49
2023/10/07 13:30:55;;;;;;;;;;;;;;;;;;112588;210;44838;-49
2023/10/07 13:33:32;;;;;;;;;;;;;;;;;;112452;210;175368;-49
2023/10/07 13:36:07;;;;;;;;;;;;;;;;;;112537;210;42889;-48
2023/10/07 13:38:39;;;;;;;;;;;;;;;;;;112529;210;41895;-49
2023/10/07 13:41:18;;;;;;;;;;;;;;;;;;112587;210;44962;-49
2023/10/07 13:43:51;;;;;;;;;;;;;;;;;;112601;210;39738;-48
2023/10/07 13:46:24;;;;;;;;;;;;;;;;;;112541;210;43010;-46
2023/10/07 13:49:00;;;;;;;;;;;;;;;;;;112549;210;43041;-45
2023/10/07 13:51:33;;;;;;;;;;;;;;;;;;112571;210;44745;-45
2023/10/07 13:56:54;;;;;;;;;;;;;;;;;;112600;210;42970;-45
2023/10/07 13:59:32;;;;;;;;;;;;;;;;;;112530;210;41669;-45
2023/10/07 14:02:13;;;;;;;;;;;;;;;;;;112590;210;39964;-45
2023/10/07 14:04:52;;;;;;;;;;;;;;;;;;112530;210;39554;-44
2023/10/07 14:07:32;;;;;;;;;;;;;;;;;;112501;210;42795;-44
2023/10/07 14:10:09;;;;;;;;;;;;;;;;;;112472;210;42964;-46
2023/10/07 14:12:42;;;;;;;;;;;;;;;;;;112548;210;38605;-45
2023/10/07 14:15:18;;;;;;;;;;;;;;;;;;112544;210;40739;-45
2023/10/07 14:18:01;;;;;;;;;;;;;;;;;;112537;210;42972;-45
2023/10/07 14:20:36;;;;;;;;;;;;;;;;;;112508;210;41456;-49
2023/10/07 14:23:14;;;;;;;;;;;;;;;;;;112566;210;38680;-46
2023/10/07 14:25:52;;;;;;;;;;;;;;;;;;112526;209;39773;-47
2023/10/07 14:28:29;;;;;;;;;;;;;;;;;;112547;210;42991;-45
2023/10/07 14:31:11;;;;;;;;;;;;;;;;;;112534;210;41794;-44
2023/10/07 14:33:48;;;;;;;;;;;;;;;;;;112598;210;40153;-49
2023/10/07 14:36:24;;;;;;;;;;;;;;;;;;112585;210;39785;-46
2023/10/07 14:38:57;;;;;;;;;;;;;;;;;;112556;210;42957;-47
2023/10/07 14:41:30;;;;;;;;;;;;;;;;;;112508;209;41611;-48
2023/10/07 14:44:06;;;;;;;;;;;;;;;;;;112528;210;38925;-47
2023/10/07 14:46:42;;;;;;;;;;;;;;;;;;112577;209;39785;-45
2023/10/07 14:49:16;;;;;;;;;;;;;;;;;;112546;210;44093;-45
2023/10/07 14:51:50;;;;;;;;;;;;;;;;;;112541;210;42870;-45
2023/10/07 14:54:23;;;;;;;;;;;;;;;;;;112578;210;38739;-46
2023/10/07 14:56:57;;;;;;;;;;;;;;;;;;112550;209;40983;-44
2023/10/07 14:59:33;;;;;;;;;;;;;;;;;;112561;209;44000;-43
2023/10/07 15:02:06;;;;;;;;;;;;;;;;;;112494;209;42894;-46
2023/10/07 15:04:45;;;;;;;;;;;;;;;;;;112581;210;38758;-42
2023/10/07 15:07:20;;;;;;;;;;;;;;;;;;112549;210;39790;-43
2023/10/07 15:09:56;;;;;;;;;;;;;;;;;;112522;210;42959;-43
2023/10/07 15:12:29;;;;;;;;;;;;;;;;;;112539;210;42092;-47
2023/10/07 15:15:06;;;;;;;;;;;;;;;;;;112514;209;39887;-45
2023/10/07 15:17:40;;;;;;;;;;;;;;;;;;112575;210;40991;-44
2023/10/07 15:20:15;;;;;;;;;;;;;;;;;;112547;209;42750;-43
2023/10/07 15:22:49;;;;;;;;;;;;;;;;;;112509;209;41960;-45
2023/10/07 15:25:24;;;;;;;;;;;;;;;;;;112558;210;38839;-44
2023/10/07 15:27:58;;;;;;;;;;;;;;;;;;112554;209;39391;-43
2023/10/07 15:30:31;;;;;;;;;;;;;;;;;;112538;210;42795;-44
2023/10/07 15:33:06;;;;;;;;;;;;;;;;;;112382;210;175648;-45
2023/10/07 15:35:38;;;;;;;;;;;;;;;;;;112576;210;38830;-43
2023/10/07 15:38:13;;;;;;;;;;;;;;;;;;112563;209;39645;-45
2023/10/07 15:40:48;;;;;;;;;;;;;;;;;;112534;209;43220;-43
2023/10/07 15:43:20;;;;;;;;;;;;;;;;;;112499;209;41450;-43
2023/10/07 15:45:54;;;;;;;;;;;;;;;;;;112576;210;40022;-44
2023/10/07 15:48:32;;;;;;;;;;;;;;;;;;112540;209;39407;-43
2023/10/07 15:51:08;;;;;;;;;;;;;;;;;;112563;209;42529;-43
2023/10/07 15:53:41;;;;;;;;;;;;;;;;;;112504;209;41478;-46
2023/10/07 15:56:17;;;;;;;;;;;;;;;;;;112424;209;175703;-44
2023/10/07 15:58:53;;;;;;;;;;;;;;;;;;112552;210;39605;-47
2023/10/07 16:01:26;;;;;;;;;;;;;;;;;;112538;210;42793;-45
2023/10/07 16:03:59;;;;;;;;;;;;;;;;;;112504;209;47464;-45
2023/10/07 16:06:33;;;;;;;;;;;;;;;;;;112575;209;38816;-47
2023/10/07 16:09:14;;;;;;;;;;;;;;;;;;112547;209;40131;-49
2023/10/07 16:11:47;;;;;;;;;;;;;;;;;;112571;210;42861;-48
2023/10/07 16:14:20;;;;;;;;;;;;;;;;;;112538;209;47655;-50
2023/10/07 16:16:54;;;;;;;;;;;;;;;;;;111882;209;895351;-49
2023/10/07 16:19:28;;;;;;;;;;;;;;;;;;112587;209;41012;-48
2023/10/07 16:22:00;;;;;;;;;;;;;;;;;;112585;210;44193;-47
2023/10/07 16:24:34;;;;;;;;;;;;;;;;;;112507;209;48113;-46
2023/10/07 16:27:06;;;;;;;;;;;;;;;;;;112546;210;38897;-47
2023/10/07 16:29:40;;;;;;;;;;;;;;;;;;112567;209;39743;-44
2023/10/07 16:32:12;;;;;;;;;;;;;;;;;;112590;209;42988;-47
2023/10/07 16:34:47;;;;;;;;;;;;;;;;;;112527;209;41544;-45
2023/10/07 16:37:21;;;;;;;;;;;;;;;;;;112585;210;38886;-46
2023/10/07 16:39:53;;;;;;;;;;;;;;;;;;112599;209;39523;-46
2023/10/07 16:42:27;;;;;;;;;;;;;;;;;;112563;209;42817;-47
2023/10/07 16:45:05;;;;;;;;;;;;;;;;;;112484;210;48893;-47
2023/10/07 16:47:39;;;;;;;;;;;;;;;;;;112585;210;38828;-50
2023/10/07 16:50:16;;;;;;;;;;;;;;;;;;112536;210;39761;-49
2023/10/07 16:52:51;;;;;;;;;;;;;;;;;;112556;210;42991;-48
2023/10/07 16:55:24;;;;;;;;;;;;;;;;;;112512;210;47371;-47
2023/10/07 16:58:01;;;;;;;;;;;;;;;;;;112572;210;38713;-47
2023/10/07 17:00:38;;;;;;;;;;;;;;;;;;112549;210;39721;-47
2023/10/07 17:03:14;;;;;;;;;;;;;;;;;;112528;210;42844;-46
2023/10/07 17:05:49;;;;;;;;;;;;;;;;;;112602;210;41822;-49
2023/10/07 17:08:23;;;;;;;;;;;;;;;;;;112585;210;40081;-49
2023/10/07 17:11:00;;;;;;;;;;;;;;;;;;112574;210;39550;-48
2023/10/07 17:13:32;;;;;;;;;;;;;;;;;;112547;210;42987;-49
2023/10/07 17:16:09;;;;;;;;;;;;;;;;;;112520;210;49174;-50
2023/10/07 17:18:43;;;;;;;;;;;;;;;;;;112555;210;39363;-51
2023/10/07 17:21:19;;;;;;;;;;;;;;;;;;112533;210;39816;-50
2023/10/07 17:23:52;;;;;;;;;;;;;;;;;;112498;210;44007;-47
2023/10/07 17:26:27;;;;;;;;;;;;;;;;;;112482;210;47949;-47
2023/10/07 17:28:59;;;;;;;;;;;;;;;;;;112525;210;38864;-48
2023/10/07 17:31:33;;;;;;;;;;;;;;;;;;112483;210;39894;-46
2023/10/07 17:34:09;;;;;;;;;;;;;;;;;;112473;210;43158;-48
2023/10/07 17:36:41;;;;;;;;;;;;;;;;;;112500;210;48056;-47
2023/10/07 17:39:15;;;;;;;;;;;;;;;;;;112525;210;40059;-46
2023/10/07 17:41:51;;;;;;;;;;;;;;;;;;112505;210;42125;-46
2023/10/07 17:44:27;;;;;;;;;;;;;;;;;;112421;210;42967;-46
2023/10/07 17:46:59;;;;;;;;;;;;;;;;;;112490;210;47743;-46
2023/10/07 17:49:33;;;;;;;;;;;;;;;;;;112528;210;38787;-46
2023/10/07 17:52:08;;;;;;;;;;;;;;;;;;112540;210;40109;-46
2023/10/07 17:54:43;;;;;;;;;;;;;;;;;;112513;210;42475;-47
2023/10/07 17:57:16;;;;;;;;;;;;;;;;;;112501;210;47838;-45